sensor_id;sensor_type;location;lat;lon;timestamp;temperature;humidity
16955;DHT22;8594;52.052;8.354;2022-10-15T00:00:53;15.50;99.90
16955;DHT22;8594;52.052;8.354;2022-10-15T00:03:20;15.50;99.90
16955;DHT22;8594;52.052;8.354;2022-10-15T00:05:48;15.50;99.90
16955;DHT22;8594;52.052;8.354;2022-10-15T00:08:15;15.50;99.90
16955;DHT22;8594;52.052;8.354;2022-10-15T00:10:41;15.40;99.90
16955;DHT22;8594;52.052;8.354;2022-10-15T00:13:08;15.50;99.90
16955;DHT22;8594;52.052;8.354;2022-10-15T00:15:37;15.50;99.90
16955;DHT22;8594;52.052;8.354;2022-10-15T00:18:04;15.50;99.90
16955;DHT22;8594;52.052;8.354;2022-10-15T00:20:31;15.50;99.90
16955;DHT22;8594;52.052;8.354;2022-10-15T00:23:00;15.60;99.90
16955;DHT22;8594;52.052;8.354;2022-10-15T00:25:27;15.60;99.90
16955;DHT22;8594;52.052;8.354;2022-10-15T00:27:54;15.60;99.90
16955;DHT22;8594;52.052;8.354;2022-10-15T00:30:20;15.60;99.90
16955;DHT22;8594;52.052;8.354;2022-10-15T00:32:47;15.60;99.90
16955;DHT22;8594;52.052;8.354;2022-10-15T00:35:14;15.60;99.90
16955;DHT22;8594;52.052;8.354;2022-10-15T00:37:41;15.60;99.90
16955;DHT22;8594;52.052;8.354;2022-10-15T00:40:11;15.50;99.90
16955;DHT22;8594;52.052;8.354;2022-10-15T00:42:39;15.60;99.90
16955;DHT22;8594;52.052;8.354;2022-10-15T00:45:11;15.60;99.90
16955;DHT22;8594;52.052;8.354;2022-10-15T00:47:40;15.50;99.90
16955;DHT22;8594;52.052;8.354;2022-10-15T00:50:13;15.50;99.90
16955;DHT22;8594;52.052;8.354;2022-10-15T00:52:56;15.50;99.90
16955;DHT22;8594;52.052;8.354;2022-10-15T00:55:30;15.40;99.90
16955;DHT22;8594;52.052;8.354;2022-10-15T00:58:02;15.40;99.90
16955;DHT22;8594;52.052;8.354;2022-10-15T01:00:32;15.40;99.90
16955;DHT22;8594;52.052;8.354;2022-10-15T01:02:59;15.30;99.90
16955;DHT22;8594;52.052;8.354;2022-10-15T01:05:26;15.40;99.90
16955;DHT22;8594;52.052;8.354;2022-10-15T01:07:54;15.50;99.90
16955;DHT22;8594;52.052;8.354;2022-10-15T01:10:21;15.50;99.90
16955;DHT22;8594;52.052;8.354;2022-10-15T01:13:02;15.50;99.90
16955;DHT22;8594;52.052;8.354;2022-10-15T01:15:42;15.50;99.90
16955;DHT22;8594;52.052;8.354;2022-10-15T01:18:16;15.50;99.90
16955;DHT22;8594;52.052;8.354;2022-10-15T01:20:59;15.50;99.90
16955;DHT22;8594;52.052;8.354;2022-10-15T01:23:56;15.50;99.90
16955;DHT22;8594;52.052;8.354;2022-10-15T01:26:58;15.30;99.90
16955;DHT22;8594;52.052;8.354;2022-10-15T01:30:04;15.60;99.90
16955;DHT22;8594;52.052;8.354;2022-10-15T01:33:03;15.50;99.90
16955;DHT22;8594;52.052;8.354;2022-10-15T01:35:49;15.80;99.90
16955;DHT22;8594;52.052;8.354;2022-10-15T01:38:24;15.80;99.90
16955;DHT22;8594;52.052;8.354;2022-10-15T01:41:01;15.60;99.90
16955;DHT22;8594;52.052;8.354;2022-10-15T01:43:38;15.40;99.90
16955;DHT22;8594;52.052;8.354;2022-10-15T01:46:15;15.40;99.90
16955;DHT22;8594;52.052;8.354;2022-10-15T01:48:48;15.40;99.90
16955;DHT22;8594;52.052;8.354;2022-10-15T01:51:20;15.40;99.90
16955;DHT22;8594;52.052;8.354;2022-10-15T01:53:50;15.30;99.90
16955;DHT22;8594;52.052;8.354;2022-10-15T01:56:20;15.20;99.90
16955;DHT22;8594;52.052;8.354;2022-10-15T01:58:51;15.30;99.90
16955;DHT22;8594;52.052;8.354;2022-10-15T02:01:21;15.30;99.90
16955;DHT22;8594;52.052;8.354;2022-10-15T02:03:51;15.30;99.90
16955;DHT22;8594;52.052;8.354;2022-10-15T02:06:22;15.30;99.90
16955;DHT22;8594;52.052;8.354;2022-10-15T02:09:03;15.30;99.90
16955;DHT22;8594;52.052;8.354;2022-10-15T02:11:44;15.30;99.90
16955;DHT22;8594;52.052;8.354;2022-10-15T02:14:26;15.30;99.90
16955;DHT22;8594;52.052;8.354;2022-10-15T02:16:59;15.40;99.90
16955;DHT22;8594;52.052;8.354;2022-10-15T02:19:40;15.50;99.90
16955;DHT22;8594;52.052;8.354;2022-10-15T02:22:14;15.50;99.90
16955;DHT22;8594;52.052;8.354;2022-10-15T02:24:50;15.50;99.90
16955;DHT22;8594;52.052;8.354;2022-10-15T02:27:21;15.50;99.90
16955;DHT22;8594;52.052;8.354;2022-10-15T02:29:50;15.50;99.90
16955;DHT22;8594;52.052;8.354;2022-10-15T02:32:20;15.50;99.90
16955;DHT22;8594;52.052;8.354;2022-10-15T02:34:49;15.50;99.90
16955;DHT22;8594;52.052;8.354;2022-10-15T02:37:20;15.50;99.90
16955;DHT22;8594;52.052;8.354;2022-10-15T02:39:49;15.40;99.90
16955;DHT22;8594;52.052;8.354;2022-10-15T02:42:17;15.50;99.90
16955;DHT22;8594;52.052;8.354;2022-10-15T02:44:44;15.60;99.90
16955;DHT22;8594;52.052;8.354;2022-10-15T02:47:12;15.50;99.90
16955;DHT22;8594;52.052;8.354;2022-10-15T02:49:39;15.50;99.90
16955;DHT22;8594;52.052;8.354;2022-10-15T02:52:07;15.40;99.90
16955;DHT22;8594;52.052;8.354;2022-10-15T02:54:34;15.30;99.90
16955;DHT22;8594;52.052;8.354;2022-10-15T02:57:01;15.30;99.90
16955;DHT22;8594;52.052;8.354;2022-10-15T02:59:27;15.30;99.90
16955;DHT22;8594;52.052;8.354;2022-10-15T03:01:54;15.30;99.90
16955;DHT22;8594;52.052;8.354;2022-10-15T03:04:21;15.30;99.90
16955;DHT22;8594;52.052;8.354;2022-10-15T03:06:48;15.40;99.90
16955;DHT22;8594;52.052;8.354;2022-10-15T03:09:17;15.40;99.90
16955;DHT22;8594;52.052;8.354;2022-10-15T03:11:44;15.30;99.90
16955;DHT22;8594;52.052;8.354;2022-10-15T03:14:11;15.30;99.90
16955;DHT22;8594;52.052;8.354;2022-10-15T03:16:38;15.40;99.90
16955;DHT22;8594;52.052;8.354;2022-10-15T03:19:05;15.20;99.90
16955;DHT22;8594;52.052;8.354;2022-10-15T03:21:32;15.30;99.90
16955;DHT22;8594;52.052;8.354;2022-10-15T03:23:59;15.30;99.90
16955;DHT22;8594;52.052;8.354;2022-10-15T03:26:27;15.20;99.90
16955;DHT22;8594;52.052;8.354;2022-10-15T03:28:54;15.30;99.90
16955;DHT22;8594;52.052;8.354;2022-10-15T03:31:21;15.30;99.90
16955;DHT22;8594;52.052;8.354;2022-10-15T03:33:48;15.20;99.90
16955;DHT22;8594;52.052;8.354;2022-10-15T03:36:15;15.10;99.90
16955;DHT22;8594;52.052;8.354;2022-10-15T03:38:42;15.00;99.90
16955;DHT22;8594;52.052;8.354;2022-10-15T03:41:09;15.00;99.90
16955;DHT22;8594;52.052;8.354;2022-10-15T03:43:38;14.90;99.90
16955;DHT22;8594;52.052;8.354;2022-10-15T03:46:05;14.90;99.90
16955;DHT22;8594;52.052;8.354;2022-10-15T03:48:31;14.90;99.90
16955;DHT22;8594;52.052;8.354;2022-10-15T03:50:58;14.90;99.90
16955;DHT22;8594;52.052;8.354;2022-10-15T03:53:25;14.90;99.90
16955;DHT22;8594;52.052;8.354;2022-10-15T03:55:52;14.90;99.90
16955;DHT22;8594;52.052;8.354;2022-10-15T03:58:19;14.80;99.90
16955;DHT22;8594;52.052;8.354;2022-10-15T04:00:47;14.70;99.90
16955;DHT22;8594;52.052;8.354;2022-10-15T04:03:14;14.60;99.90
16955;DHT22;8594;52.052;8.354;2022-10-15T04:05:41;14.50;99.90
16955;DHT22;8594;52.052;8.354;2022-10-15T04:08:15;14.50;99.90
16955;DHT22;8594;52.052;8.354;2022-10-15T04:10:42;14.50;99.90
16955;DHT22;8594;52.052;8.354;2022-10-15T04:13:09;14.40;99.90
16955;DHT22;8594;52.052;8.354;2022-10-15T04:15:38;14.50;99.90
16955;DHT22;8594;52.052;8.354;2022-10-15T04:18:06;14.60;99.90
16955;DHT22;8594;52.052;8.354;2022-10-15T04:20:33;14.60;99.90
16955;DHT22;8594;52.052;8.354;2022-10-15T04:23:00;14.50;99.90
16955;DHT22;8594;52.052;8.354;2022-10-15T04:25:27;14.50;99.90
16955;DHT22;8594;52.052;8.354;2022-10-15T04:27:54;14.60;99.90
16955;DHT22;8594;52.052;8.354;2022-10-15T04:30:21;14.60;99.90
16955;DHT22;8594;52.052;8.354;2022-10-15T04:32:50;14.50;99.90
16955;DHT22;8594;52.052;8.354;2022-10-15T04:35:19;14.50;99.90
16955;DHT22;8594;52.052;8.354;2022-10-15T04:37:46;14.40;99.90
16955;DHT22;8594;52.052;8.354;2022-10-15T04:40:14;14.50;99.90
16955;DHT22;8594;52.052;8.354;2022-10-15T04:42:41;14.40;99.90
16955;DHT22;8594;52.052;8.354;2022-10-15T04:45:08;14.50;99.90
16955;DHT22;8594;52.052;8.354;2022-10-15T04:47:35;14.50;99.90
16955;DHT22;8594;52.052;8.354;2022-10-15T04:50:02;14.50;99.90
16955;DHT22;8594;52.052;8.354;2022-10-15T04:52:31;14.50;99.90
16955;DHT22;8594;52.052;8.354;2022-10-15T04:54:59;14.50;99.90
16955;DHT22;8594;52.052;8.354;2022-10-15T04:57:27;14.50;99.90
16955;DHT22;8594;52.052;8.354;2022-10-15T04:59:54;14.60;99.90
16955;DHT22;8594;52.052;8.354;2022-10-15T05:02:21;14.60;99.90
16955;DHT22;8594;52.052;8.354;2022-10-15T05:04:48;14.50;99.90
16955;DHT22;8594;52.052;8.354;2022-10-15T05:07:15;14.50;99.90
16955;DHT22;8594;52.052;8.354;2022-10-15T05:09:43;14.50;99.90
16955;DHT22;8594;52.052;8.354;2022-10-15T05:12:10;14.50;99.90
16955;DHT22;8594;52.052;8.354;2022-10-15T05:14:37;14.60;99.90
16955;DHT22;8594;52.052;8.354;2022-10-15T05:17:04;14.50;99.90
16955;DHT22;8594;52.052;8.354;2022-10-15T05:19:31;14.50;99.90
16955;DHT22;8594;52.052;8.354;2022-10-15T05:21:57;14.50;99.90
16955;DHT22;8594;52.052;8.354;2022-10-15T05:24:24;14.40;99.90
16955;DHT22;8594;52.052;8.354;2022-10-15T05:26:52;14.40;99.90
16955;DHT22;8594;52.052;8.354;2022-10-15T05:29:20;14.50;99.90
16955;DHT22;8594;52.052;8.354;2022-10-15T05:31:49;14.60;99.90
16955;DHT22;8594;52.052;8.354;2022-10-15T05:34:17;14.60;99.90
16955;DHT22;8594;52.052;8.354;2022-10-15T05:36:44;14.60;99.90
16955;DHT22;8594;52.052;8.354;2022-10-15T05:39:10;14.60;99.90
16955;DHT22;8594;52.052;8.354;2022-10-15T05:41:38;14.60;99.90
16955;DHT22;8594;52.052;8.354;2022-10-15T05:44:06;14.60;99.90
16955;DHT22;8594;52.052;8.354;2022-10-15T05:46:33;14.60;99.90
16955;DHT22;8594;52.052;8.354;2022-10-15T05:49:00;14.60;99.90
16955;DHT22;8594;52.052;8.354;2022-10-15T05:51:27;14.60;99.90
16955;DHT22;8594;52.052;8.354;2022-10-15T05:53:56;14.60;99.90
16955;DHT22;8594;52.052;8.354;2022-10-15T05:56:24;14.70;99.90
16955;DHT22;8594;52.052;8.354;2022-10-15T05:58:51;14.70;99.90
16955;DHT22;8594;52.052;8.354;2022-10-15T06:01:19;14.70;99.90
16955;DHT22;8594;52.052;8.354;2022-10-15T06:03:47;14.60;99.90
16955;DHT22;8594;52.052;8.354;2022-10-15T06:06:16;14.60;99.90
16955;DHT22;8594;52.052;8.354;2022-10-15T06:08:45;14.70;99.90
16955;DHT22;8594;52.052;8.354;2022-10-15T06:11:13;14.70;99.90
16955;DHT22;8594;52.052;8.354;2022-10-15T06:13:41;14.70;99.90
16955;DHT22;8594;52.052;8.354;2022-10-15T06:16:10;14.60;99.90
16955;DHT22;8594;52.052;8.354;2022-10-15T06:18:38;14.70;99.90
16955;DHT22;8594;52.052;8.354;2022-10-15T06:21:06;14.60;99.90
16955;DHT22;8594;52.052;8.354;2022-10-15T06:23:33;14.70;99.90
16955;DHT22;8594;52.052;8.354;2022-10-15T06:26:02;14.60;99.90
16955;DHT22;8594;52.052;8.354;2022-10-15T06:28:29;14.70;99.90
16955;DHT22;8594;52.052;8.354;2022-10-15T06:30:57;14.70;99.90
16955;DHT22;8594;52.052;8.354;2022-10-15T06:33:25;14.70;99.90
16955;DHT22;8594;52.052;8.354;2022-10-15T06:35:53;14.70;99.90
16955;DHT22;8594;52.052;8.354;2022-10-15T06:38:20;14.70;99.90
16955;DHT22;8594;52.052;8.354;2022-10-15T06:40:48;14.70;99.90
16955;DHT22;8594;52.052;8.354;2022-10-15T06:43:15;14.70;99.90
16955;DHT22;8594;52.052;8.354;2022-10-15T06:45:42;14.70;99.90
16955;DHT22;8594;52.052;8.354;2022-10-15T06:48:09;14.90;99.90
16955;DHT22;8594;52.052;8.354;2022-10-15T06:50:38;14.90;99.90
16955;DHT22;8594;52.052;8.354;2022-10-15T06:53:06;14.90;99.90
16955;DHT22;8594;52.052;8.354;2022-10-15T06:55:33;15.20;99.90
16955;DHT22;8594;52.052;8.354;2022-10-15T06:58:00;15.40;99.90
16955;DHT22;8594;52.052;8.354;2022-10-15T07:00:27;15.30;99.90
16955;DHT22;8594;52.052;8.354;2022-10-15T07:02:54;15.10;99.90
16955;DHT22;8594;52.052;8.354;2022-10-15T07:05:21;15.00;99.90
16955;DHT22;8594;52.052;8.354;2022-10-15T07:07:51;14.90;99.90
16955;DHT22;8594;52.052;8.354;2022-10-15T07:10:20;15.00;99.90
16955;DHT22;8594;52.052;8.354;2022-10-15T07:12:48;15.00;99.90
16955;DHT22;8594;52.052;8.354;2022-10-15T07:15:15;15.00;99.90
16955;DHT22;8594;52.052;8.354;2022-10-15T07:17:46;15.00;99.90
16955;DHT22;8594;52.052;8.354;2022-10-15T07:20:14;14.90;99.90
16955;DHT22;8594;52.052;8.354;2022-10-15T07:22:42;15.00;99.90
16955;DHT22;8594;52.052;8.354;2022-10-15T07:25:09;15.30;99.90
16955;DHT22;8594;52.052;8.354;2022-10-15T07:27:37;15.10;99.90
16955;DHT22;8594;52.052;8.354;2022-10-15T07:30:06;15.20;99.90
16955;DHT22;8594;52.052;8.354;2022-10-15T07:32:34;15.40;99.90
16955;DHT22;8594;52.052;8.354;2022-10-15T07:35:01;15.20;99.90
16955;DHT22;8594;52.052;8.354;2022-10-15T07:37:29;15.20;99.90
16955;DHT22;8594;52.052;8.354;2022-10-15T07:39:56;15.10;99.90
16955;DHT22;8594;52.052;8.354;2022-10-15T07:42:23;15.20;99.90
16955;DHT22;8594;52.052;8.354;2022-10-15T07:44:51;15.20;99.90
16955;DHT22;8594;52.052;8.354;2022-10-15T07:47:18;15.30;99.90
16955;DHT22;8594;52.052;8.354;2022-10-15T07:49:45;15.30;99.90
16955;DHT22;8594;52.052;8.354;2022-10-15T07:52:12;15.30;99.90
16955;DHT22;8594;52.052;8.354;2022-10-15T07:54:39;15.40;99.90
16955;DHT22;8594;52.052;8.354;2022-10-15T07:57:06;15.30;99.90
16955;DHT22;8594;52.052;8.354;2022-10-15T07:59:34;15.40;99.90
16955;DHT22;8594;52.052;8.354;2022-10-15T08:02:02;15.70;99.90
16955;DHT22;8594;52.052;8.354;2022-10-15T08:04:29;15.70;99.90
16955;DHT22;8594;52.052;8.354;2022-10-15T08:06:56;15.70;99.90
16955;DHT22;8594;52.052;8.354;2022-10-15T08:09:23;15.70;99.90
16955;DHT22;8594;52.052;8.354;2022-10-15T08:11:50;15.70;99.90
16955;DHT22;8594;52.052;8.354;2022-10-15T08:14:17;15.80;99.90
16955;DHT22;8594;52.052;8.354;2022-10-15T08:16:43;15.80;99.90
16955;DHT22;8594;52.052;8.354;2022-10-15T08:19:12;15.70;99.90
16955;DHT22;8594;52.052;8.354;2022-10-15T08:21:41;15.70;99.90
16955;DHT22;8594;52.052;8.354;2022-10-15T08:24:08;15.80;99.90
16955;DHT22;8594;52.052;8.354;2022-10-15T08:26:35;15.90;99.90
16955;DHT22;8594;52.052;8.354;2022-10-15T08:29:03;16.10;99.90
16955;DHT22;8594;52.052;8.354;2022-10-15T08:31:30;16.10;99.90
16955;DHT22;8594;52.052;8.354;2022-10-15T08:33:58;16.10;99.90
16955;DHT22;8594;52.052;8.354;2022-10-15T08:36:27;16.10;99.90
16955;DHT22;8594;52.052;8.354;2022-10-15T08:38:54;16.20;99.90
16955;DHT22;8594;52.052;8.354;2022-10-15T08:41:26;16.40;99.90
16955;DHT22;8594;52.052;8.354;2022-10-15T08:43:58;16.30;99.90
16955;DHT22;8594;52.052;8.354;2022-10-15T08:46:30;16.60;99.90
16955;DHT22;8594;52.052;8.354;2022-10-15T08:49:00;17.20;99.90
16955;DHT22;8594;52.052;8.354;2022-10-15T08:51:37;17.20;99.90
16955;DHT22;8594;52.052;8.354;2022-10-15T08:54:12;17.10;99.90
16955;DHT22;8594;52.052;8.354;2022-10-15T08:56:43;17.00;99.90
16955;DHT22;8594;52.052;8.354;2022-10-15T08:59:30;17.30;99.90
16955;DHT22;8594;52.052;8.354;2022-10-15T09:02:14;17.70;99.90
16955;DHT22;8594;52.052;8.354;2022-10-15T09:04:52;17.60;99.90
16955;DHT22;8594;52.052;8.354;2022-10-15T09:07:34;17.30;99.90
16955;DHT22;8594;52.052;8.354;2022-10-15T09:10:14;17.40;99.90
16955;DHT22;8594;52.052;8.354;2022-10-15T09:12:49;17.30;99.90
16955;DHT22;8594;52.052;8.354;2022-10-15T09:15:36;17.30;99.90
16955;DHT22;8594;52.052;8.354;2022-10-15T09:18:26;17.40;99.90
16955;DHT22;8594;52.052;8.354;2022-10-15T09:21:01;17.50;99.90
16955;DHT22;8594;52.052;8.354;2022-10-15T09:23:33;17.50;99.90
16955;DHT22;8594;52.052;8.354;2022-10-15T09:26:05;17.70;99.90
16955;DHT22;8594;52.052;8.354;2022-10-15T09:28:46;17.70;99.90
16955;DHT22;8594;52.052;8.354;2022-10-15T09:31:27;17.80;99.90
16955;DHT22;8594;52.052;8.354;2022-10-15T09:34:02;17.70;99.90
16955;DHT22;8594;52.052;8.354;2022-10-15T09:36:36;17.70;99.90
16955;DHT22;8594;52.052;8.354;2022-10-15T09:39:39;17.80;99.90
16955;DHT22;8594;52.052;8.354;2022-10-15T09:42:22;17.80;99.90
16955;DHT22;8594;52.052;8.354;2022-10-15T09:44:56;17.60;99.90
16955;DHT22;8594;52.052;8.354;2022-10-15T09:47:27;17.70;99.90
16955;DHT22;8594;52.052;8.354;2022-10-15T09:49:56;17.80;99.90
16955;DHT22;8594;52.052;8.354;2022-10-15T09:52:36;17.90;99.90
16955;DHT22;8594;52.052;8.354;2022-10-15T09:55:26;18.00;99.90
16955;DHT22;8594;52.052;8.354;2022-10-15T09:58:05;18.40;99.90
16955;DHT22;8594;52.052;8.354;2022-10-15T10:00:53;18.40;99.90
16955;DHT22;8594;52.052;8.354;2022-10-15T10:03:24;18.30;99.90
16955;DHT22;8594;52.052;8.354;2022-10-15T10:05:59;18.30;99.90
16955;DHT22;8594;52.052;8.354;2022-10-15T10:08:32;18.30;99.90
16955;DHT22;8594;52.052;8.354;2022-10-15T10:11:03;18.10;99.90
16955;DHT22;8594;52.052;8.354;2022-10-15T10:13:36;18.10;99.90
16955;DHT22;8594;52.052;8.354;2022-10-15T10:16:08;18.00;99.90
16955;DHT22;8594;52.052;8.354;2022-10-15T10:18:37;18.00;99.90
16955;DHT22;8594;52.052;8.354;2022-10-15T10:21:08;18.00;99.90
16955;DHT22;8594;52.052;8.354;2022-10-15T10:23:48;17.80;99.90
16955;DHT22;8594;52.052;8.354;2022-10-15T10:26:16;17.90;99.90
16955;DHT22;8594;52.052;8.354;2022-10-15T10:28:50;17.90;99.90
16955;DHT22;8594;52.052;8.354;2022-10-15T10:31:26;18.00;99.90
16955;DHT22;8594;52.052;8.354;2022-10-15T10:33:55;18.00;99.90
16955;DHT22;8594;52.052;8.354;2022-10-15T10:36:27;18.00;99.90
16955;DHT22;8594;52.052;8.354;2022-10-15T10:39:00;17.90;99.90
16955;DHT22;8594;52.052;8.354;2022-10-15T10:41:51;18.00;99.90
16955;DHT22;8594;52.052;8.354;2022-10-15T10:44:24;18.60;99.90
16955;DHT22;8594;52.052;8.354;2022-10-15T10:47:11;19.30;99.90
16955;DHT22;8594;52.052;8.354;2022-10-15T10:49:41;19.60;99.90
16955;DHT22;8594;52.052;8.354;2022-10-15T10:52:27;19.90;99.90
16955;DHT22;8594;52.052;8.354;2022-10-15T10:55:00;20.20;99.90
16955;DHT22;8594;52.052;8.354;2022-10-15T10:57:39;20.60;99.90
16955;DHT22;8594;52.052;8.354;2022-10-15T11:00:14;20.70;99.90
16955;DHT22;8594;52.052;8.354;2022-10-15T11:02:44;20.80;99.90
16955;DHT22;8594;52.052;8.354;2022-10-15T11:05:11;20.90;99.90
16955;DHT22;8594;52.052;8.354;2022-10-15T11:07:45;21.00;99.90
16955;DHT22;8594;52.052;8.354;2022-10-15T11:10:21;21.10;99.90
16955;DHT22;8594;52.052;8.354;2022-10-15T11:13:01;21.10;99.90
16955;DHT22;8594;52.052;8.354;2022-10-15T11:15:43;21.40;99.90
16955;DHT22;8594;52.052;8.354;2022-10-15T11:18:28;21.60;99.90
16955;DHT22;8594;52.052;8.354;2022-10-15T11:21:09;21.70;99.90
16955;DHT22;8594;52.052;8.354;2022-10-15T11:24:03;21.70;99.90
16955;DHT22;8594;52.052;8.354;2022-10-15T11:26:47;21.70;99.90
16955;DHT22;8594;52.052;8.354;2022-10-15T11:29:27;21.70;99.90
16955;DHT22;8594;52.052;8.354;2022-10-15T11:32:07;21.50;99.90
16955;DHT22;8594;52.052;8.354;2022-10-15T11:34:51;21.70;99.90
16955;DHT22;8594;52.052;8.354;2022-10-15T11:37:37;22.00;99.90
16955;DHT22;8594;52.052;8.354;2022-10-15T11:40:19;22.20;99.90
16955;DHT22;8594;52.052;8.354;2022-10-15T11:42:58;22.30;99.90
16955;DHT22;8594;52.052;8.354;2022-10-15T11:45:59;22.20;99.90
16955;DHT22;8594;52.052;8.354;2022-10-15T11:48:44;21.80;99.90
16955;DHT22;8594;52.052;8.354;2022-10-15T11:51:28;21.50;99.90
16955;DHT22;8594;52.052;8.354;2022-10-15T11:54:20;21.30;99.90
16955;DHT22;8594;52.052;8.354;2022-10-15T11:56:55;21.20;99.90
16955;DHT22;8594;52.052;8.354;2022-10-15T11:59:31;21.00;99.90
16955;DHT22;8594;52.052;8.354;2022-10-15T12:02:11;20.40;99.90
16955;DHT22;8594;52.052;8.354;2022-10-15T12:04:43;20.50;99.90
16955;DHT22;8594;52.052;8.354;2022-10-15T12:07:17;20.40;99.90
16955;DHT22;8594;52.052;8.354;2022-10-15T12:09:50;20.50;99.90
16955;DHT22;8594;52.052;8.354;2022-10-15T12:12:32;20.50;99.90
16955;DHT22;8594;52.052;8.354;2022-10-15T12:15:14;20.40;99.90
16955;DHT22;8594;52.052;8.354;2022-10-15T12:17:56;20.40;99.90
16955;DHT22;8594;52.052;8.354;2022-10-15T12:20:28;20.40;99.90
16955;DHT22;8594;52.052;8.354;2022-10-15T12:22:58;20.20;99.90
16955;DHT22;8594;52.052;8.354;2022-10-15T12:25:48;20.30;99.90
16955;DHT22;8594;52.052;8.354;2022-10-15T12:28:18;20.30;99.90
16955;DHT22;8594;52.052;8.354;2022-10-15T12:31:01;20.30;99.90
16955;DHT22;8594;52.052;8.354;2022-10-15T12:33:35;20.30;99.90
16955;DHT22;8594;52.052;8.354;2022-10-15T12:36:22;20.20;99.90
16955;DHT22;8594;52.052;8.354;2022-10-15T12:38:56;20.00;99.90
16955;DHT22;8594;52.052;8.354;2022-10-15T12:41:34;20.10;99.90
16955;DHT22;8594;52.052;8.354;2022-10-15T12:44:06;20.10;99.90
16955;DHT22;8594;52.052;8.354;2022-10-15T12:46:41;20.00;99.90
16955;DHT22;8594;52.052;8.354;2022-10-15T12:52:54;19.80;99.90
16955;DHT22;8594;52.052;8.354;2022-10-15T12:55:26;19.90;99.90
16955;DHT22;8594;52.052;8.354;2022-10-15T12:57:58;19.70;99.90
16955;DHT22;8594;52.052;8.354;2022-10-15T13:00:32;19.70;99.90
16955;DHT22;8594;52.052;8.354;2022-10-15T13:03:16;19.70;99.90
16955;DHT22;8594;52.052;8.354;2022-10-15T13:05:51;19.50;99.90
16955;DHT22;8594;52.052;8.354;2022-10-15T13:08:21;19.20;99.90
16955;DHT22;8594;52.052;8.354;2022-10-15T13:10:52;19.20;99.90
16955;DHT22;8594;52.052;8.354;2022-10-15T13:13:23;19.20;99.90
16955;DHT22;8594;52.052;8.354;2022-10-15T13:15:57;19.30;99.90
16955;DHT22;8594;52.052;8.354;2022-10-15T13:18:28;19.20;99.90
16955;DHT22;8594;52.052;8.354;2022-10-15T13:20:58;19.20;99.90
16955;DHT22;8594;52.052;8.354;2022-10-15T13:23:27;19.10;99.90
16955;DHT22;8594;52.052;8.354;2022-10-15T13:26:15;18.80;99.90
16955;DHT22;8594;52.052;8.354;2022-10-15T13:28:44;18.80;99.90
16955;DHT22;8594;52.052;8.354;2022-10-15T13:31:16;18.80;99.90
16955;DHT22;8594;52.052;8.354;2022-10-15T13:33:50;18.80;99.90
16955;DHT22;8594;52.052;8.354;2022-10-15T13:36:22;18.80;99.90
16955;DHT22;8594;52.052;8.354;2022-10-15T13:38:54;19.00;99.90
16955;DHT22;8594;52.052;8.354;2022-10-15T13:41:27;18.90;99.90
16955;DHT22;8594;52.052;8.354;2022-10-15T13:43:56;18.80;99.90
16955;DHT22;8594;52.052;8.354;2022-10-15T13:46:29;18.80;99.90
16955;DHT22;8594;52.052;8.354;2022-10-15T13:48:58;18.80;99.90
16955;DHT22;8594;52.052;8.354;2022-10-15T13:51:32;18.80;99.90
16955;DHT22;8594;52.052;8.354;2022-10-15T13:54:01;18.90;99.90
16955;DHT22;8594;52.052;8.354;2022-10-15T13:56:34;19.00;99.90
16955;DHT22;8594;52.052;8.354;2022-10-15T13:59:03;19.00;99.90
16955;DHT22;8594;52.052;8.354;2022-10-15T14:01:31;19.10;99.90
16955;DHT22;8594;52.052;8.354;2022-10-15T14:04:00;19.10;99.90
16955;DHT22;8594;52.052;8.354;2022-10-15T14:06:30;19.10;99.90
16955;DHT22;8594;52.052;8.354;2022-10-15T14:09:00;19.10;99.90
16955;DHT22;8594;52.052;8.354;2022-10-15T14:11:37;19.10;99.90
16955;DHT22;8594;52.052;8.354;2022-10-15T14:14:26;19.10;99.90
16955;DHT22;8594;52.052;8.354;2022-10-15T14:16:55;19.10;99.90
16955;DHT22;8594;52.052;8.354;2022-10-15T14:19:24;18.90;99.90
16955;DHT22;8594;52.052;8.354;2022-10-15T14:21:56;18.70;99.90
16955;DHT22;8594;52.052;8.354;2022-10-15T14:24:29;18.60;99.90
16955;DHT22;8594;52.052;8.354;2022-10-15T14:27:05;18.60;99.90
16955;DHT22;8594;52.052;8.354;2022-10-15T14:29:40;18.60;99.90
16955;DHT22;8594;52.052;8.354;2022-10-15T14:32:20;18.60;99.90
16955;DHT22;8594;52.052;8.354;2022-10-15T14:34:49;18.60;99.90
16955;DHT22;8594;52.052;8.354;2022-10-15T14:37:29;18.60;99.90
16955;DHT22;8594;52.052;8.354;2022-10-15T14:40:12;18.70;99.90
16955;DHT22;8594;52.052;8.354;2022-10-15T14:42:44;18.60;99.90
16955;DHT22;8594;52.052;8.354;2022-10-15T14:45:19;18.60;99.90
16955;DHT22;8594;52.052;8.354;2022-10-15T14:47:51;18.60;99.90
16955;DHT22;8594;52.052;8.354;2022-10-15T14:50:23;18.60;99.90
16955;DHT22;8594;52.052;8.354;2022-10-15T14:52:54;18.60;99.90
16955;DHT22;8594;52.052;8.354;2022-10-15T14:55:30;18.60;99.90
16955;DHT22;8594;52.052;8.354;2022-10-15T14:58:06;18.40;99.90
16955;DHT22;8594;52.052;8.354;2022-10-15T15:00:39;18.40;99.90
16955;DHT22;8594;52.052;8.354;2022-10-15T15:03:13;18.50;99.90
16955;DHT22;8594;52.052;8.354;2022-10-15T15:05:45;18.60;99.90
16955;DHT22;8594;52.052;8.354;2022-10-15T15:08:15;18.60;99.90
16955;DHT22;8594;52.052;8.354;2022-10-15T15:10:43;18.60;99.90
16955;DHT22;8594;52.052;8.354;2022-10-15T15:13:14;18.60;99.90
16955;DHT22;8594;52.052;8.354;2022-10-15T15:15:45;18.60;99.90
16955;DHT22;8594;52.052;8.354;2022-10-15T15:18:12;18.60;99.90
16955;DHT22;8594;52.052;8.354;2022-10-15T15:20:40;18.70;99.90
16955;DHT22;8594;52.052;8.354;2022-10-15T15:23:15;18.70;99.90
16955;DHT22;8594;52.052;8.354;2022-10-15T15:25:45;18.60;99.90
16955;DHT22;8594;52.052;8.354;2022-10-15T15:28:13;18.60;99.90
16955;DHT22;8594;52.052;8.354;2022-10-15T15:30:43;18.70;99.90
16955;DHT22;8594;52.052;8.354;2022-10-15T15:33:10;18.70;99.90
16955;DHT22;8594;52.052;8.354;2022-10-15T15:35:41;18.70;99.90
16955;DHT22;8594;52.052;8.354;2022-10-15T15:38:17;18.70;99.90
16955;DHT22;8594;52.052;8.354;2022-10-15T15:40:45;18.70;99.90
16955;DHT22;8594;52.052;8.354;2022-10-15T15:43:13;18.70;99.90
16955;DHT22;8594;52.052;8.354;2022-10-15T15:45:42;18.70;99.90
16955;DHT22;8594;52.052;8.354;2022-10-15T15:48:09;18.70;99.90
16955;DHT22;8594;52.052;8.354;2022-10-15T15:50:37;18.80;99.90
16955;DHT22;8594;52.052;8.354;2022-10-15T15:53:04;18.80;99.90
16955;DHT22;8594;52.052;8.354;2022-10-15T15:55:32;18.70;99.90
16955;DHT22;8594;52.052;8.354;2022-10-15T15:57:59;18.60;99.90
16955;DHT22;8594;52.052;8.354;2022-10-15T16:00:26;18.70;99.90
16955;DHT22;8594;52.052;8.354;2022-10-15T16:02:53;18.60;99.90
16955;DHT22;8594;52.052;8.354;2022-10-15T16:05:20;18.70;99.90
16955;DHT22;8594;52.052;8.354;2022-10-15T16:07:48;18.70;99.90
16955;DHT22;8594;52.052;8.354;2022-10-15T16:10:15;18.70;99.90
16955;DHT22;8594;52.052;8.354;2022-10-15T16:12:43;18.70;99.90
16955;DHT22;8594;52.052;8.354;2022-10-15T16:15:10;18.70;99.90
16955;DHT22;8594;52.052;8.354;2022-10-15T16:17:37;18.60;99.90